Página principal
METAR-TAF:

METAR-TAF

Aeroportos :

Jerez de la Frontera, Espanha

latitude: 36-45N, longitude: 006-04W, altura: 27 m

Observação actual do tempo

O boletim foi feito há 18 minutos, às 11:00 UTC
Vento 10 kt de este com rajadas de 20 kt, variando entre es-nordeste e sudeste
Temperatura 33°C
Humidade 36%
Pressão 1015 hPa
Visibilidade 10 km ou mais
sem nuvens abaixo de 1500 metros e sem cumulonimbus

METAR: LEJR 191100Z 10010G20KT 070V140 CAVOK 33/16 Q1015

Hora: 13:18 (11:18 UTC)

Previsão

O boletim foi feito há 6 horas e 18 minutos, às 05:00 UTC
Previsão válida de 19 às 06 UTC a 20 às 06 UTC
Vento 9 kt de es-sudeste
Visibilidade 10 km ou mais
sem nuvens abaixo de 1500 metros e sem cumulonimbus
Probabilidade 40% :
Temporariamente
de 19 às 08 UTC a 19 às 20 UTC
Vento 15 kt de es-sudeste com rajadas de 25 kt

TAF: LEJR 190500Z 1906/2006 11009KT CAVOK TX37/1914Z TN20/1906Z PROB40 TEMPO 1908/1920 12015G25KT

Observações e previsões do tempo de mais de 4000 aeroportos (mensagens METAR e TAF).

As estações disponíveis são os pontos amarelos e vermelhos sobre o mapa.

Mova o rato sobre o mapa para ver o nome da estação.

Depois clique no ponto para visualizar as observações e previsões meteorológicas.

Para alterar o mapa : clique nos botões verdes com uma cruz preta para aumentar o zoom; no botão verde com uma pitada de zoom; ou nas setas verdes para mapas adjacentes.


METAR-TAF: